CheckWX is a tool to help pilots better visualize weather data.  It is not intended as a substitute for an official pre-flight weather briefing.

14:17:39 UTC

KTCL METAR
Tuscaloosa Regional Airport
Tuscaloosa, Alabama, USA
Current

25 mins ago

KTCL 251353Z 18005KT 9SM OVC012 21/17 A2990 RMK AO2 SLP124 T02060172
Observed
Apr-25 @ 13:53 UTC
Wind
  • 180° at 5 KTS
Visibility
9 SM
Flight Rules
MVFR
Cloud Levels
  • Overcast at 1,200' AGL
Temperature
21°C / 70°F
Dewpoint
17°C / 63°F
Humidity
78%
Altimeter
29.9" Hg
Pressure
1012.52 hPa
Previous

1 hour ago

KTCL 251253Z 21003KT 8SM OVC012 19/17 A2991 RMK AO2 SLP128 T01940172
Observed
Apr-25 @ 12:53 UTC
Wind
  • 210° at 3 KTS
Visibility
8 SM
Flight Rules
MVFR
Cloud Levels
  • Overcast at 1,200' AGL
Temperature
19°C / 66°F
Dewpoint
17°C / 63°F
Humidity
88%
Altimeter
29.91" Hg
Pressure
1012.92 hPa
Previous

2 hours ago

KTCL 251234Z 00000KT 8SM BKN012 BKN029 19/17 A2991 RMK AO2 T01890167
Observed
Apr-25 @ 12:34 UTC
Visibility
8 SM
Flight Rules
MVFR
Cloud Levels
  • Broken at 1,200' AGL
  • Broken at 2,900' AGL
Temperature
19°C / 66°F
Dewpoint
17°C / 63°F
Humidity
88%
Altimeter
29.91" Hg
Pressure
1012.92 hPa